Mc Allen Miller International Airport
KMFE : now visible

Airfield :











YOU CAN JOIN US ON...

 
LOGIN :

Register | Disclaimer

   EN    FR    IT 

 









Legend :    VFR   Marginal VFR   IFR   Intensive IFR   Very Intensive IFR
Visi :
Ceiling :
>= 8 km
>= 3000ft
5 to 8 km
1000 to 3000 ft
1500m to 5 km
500 to 1000 ft
800 to 1500m
200 to 500 ft
< 800m
< 200 ft
Symbols :   Thunderstorms  Fog  Heavy snow  Heavy precipitations  Wind > 20 kt






- Airport Elevation : 107 ft
- IATA code : MFE


KMFE - Mc Allen Miller International

CURRENT METAR :
  • 040453Z 13010KT 10SM CLR 27/23 A3001 RMK AO2 SLP160 T02720228

EXPIRED METARs :
  • 040353Z 12010KT 10SM CLR 28/23 A2999 RMK AO2 SLP154 T02780228
  • 040253Z 13014KT 10SM CLR 29/22 A2996 RMK AO2 SLP144 T02890222 51017
  • 040153Z 14016KT 10SM CLR 30/22 A2995 RMK AO2 SLP140 T03000222

TAF KMFE
Valid from the 04 at 00:00 until the 05 at 00:00 UTC


032321Z 0400/0424 13014G20KT P6SM FEW070
FM040500 14009KT P6SM FEW025 SCT035
TEMPO 0408/0410 BKN021
FM041500 15016G23KT P6SM FEW035
KZHU FIR / North America



MET'MAP, your aeronautical weather chart ! - Copyright ORBIFLY December 2007 - Disclaimer

ORBIFLY MET'MAP TEAM :

Programming & Development : Alexandra Zaïnal
Original concept : Baudouin d'Aumeries
Technical & hardware support : Manuel Goepfert
Assistance : Marc-Olivier Méhu




SOURCES & CREDITS :

   NOAA       Earth
Advisory